Time;durP1;ratioP1;P1;durP2;ratioP2;P2;SDS_P1;SDS_P2;PMS_P1;PMS_P2;Temp;Humidity;BMP_temperature;BMP_pressure;BME280_temperature;BME280_humidity;BME280_pressure;Samples;Min_cycle;Max_cycle;Signal;HPM_P1;HPM_P2
2021/05/09 00:02:08;;;;;;;5.88;3.40;;;14.80;72.60;;;;;;4974436;28;20090;-84
2021/05/09 00:04:33;;;;;;;5.90;3.28;;;14.80;72.80;;;;;;4974777;28;20101;-83
2021/05/09 00:06:59;;;;;;;6.70;2.83;;;14.90;73.30;;;;;;4974721;28;20477;-83
2021/05/09 00:09:25;;;;;;;10.27;4.35;;;14.80;72.30;;;;;;4974876;28;20511;-82
2021/05/09 00:11:50;;;;;;;7.80;3.13;;;14.80;72.70;;;;;;4974903;28;20019;-82
2021/05/09 00:14:16;;;;;;;7.95;3.08;;;14.80;73.00;;;;;;4975219;28;20073;-83
2021/05/09 00:16:42;;;;;;;8.85;3.75;;;14.80;70.90;;;;;;4976996;28;20472;-83
2021/05/09 00:19:07;;;;;;;7.43;3.10;;;14.70;71.00;;;;;;4979905;28;20034;-84
2021/05/09 00:21:33;;;;;;;6.97;3.40;;;14.70;72.80;;;;;;4975820;28;20026;-82
2021/05/09 00:24:00;;;;;;;8.35;3.42;;;14.70;73.10;;;;;;4974720;28;20027;-82
2021/05/09 00:26:25;;;;;;;5.25;2.55;;;14.60;72.40;;;;;;4973863;28;20037;-83
2021/05/09 00:28:51;;;;;;;7.38;2.90;;;14.70;70.90;;;;;;4974272;28;20392;-83
2021/05/09 00:31:17;;;;;;;10.27;3.88;;;14.70;71.70;;;;;;4974378;28;20027;-83
2021/05/09 00:33:42;;;;;;;10.75;3.80;;;14.70;72.50;;;;;;4975375;28;20019;-83
2021/05/09 00:36:08;;;;;;;7.20;3.53;;;14.70;72.60;;;;;;4974486;28;20027;-83
2021/05/09 00:38:34;;;;;;;6.15;3.10;;;14.70;74.10;;;;;;4975131;28;20497;-83
2021/05/09 00:41:00;;;;;;;9.15;3.65;;;14.60;72.40;;;;;;4975236;28;20022;-82
2021/05/09 00:43:26;;;;;;;8.20;2.85;;;14.70;73.60;;;;;;4976557;28;20023;-85
2021/05/09 00:45:51;;;;;;;5.88;2.53;;;14.70;71.30;;;;;;4978067;28;20037;-83
2021/05/09 00:48:18;;;;;;;7.13;3.15;;;14.70;71.90;;;;;;4985866;28;20093;-83
2021/05/09 00:50:44;;;;;;;7.22;3.55;;;14.60;74.20;;;;;;4988800;28;20019;-84
2021/05/09 00:53:12;;;;;;;9.55;3.25;;;14.60;73.40;;;;;;4999721;28;20042;-84
2021/05/09 00:55:39;;;;;;;6.95;2.55;;;14.60;72.00;;;;;;4993720;28;20484;-85
2021/05/09 00:58:10;;;;;;;6.28;3.00;;;14.60;70.20;;;;;;4980603;28;20378;-85
2021/05/09 01:00:36;;;;;;;5.97;2.97;;;14.60;73.20;;;;;;4978953;28;20062;-85
2021/05/09 01:03:08;;;;;;;8.98;3.55;;;14.50;71.30;;;;;;4978528;28;20035;-85
2021/05/09 01:05:35;;;;;;;6.95;3.17;;;14.50;71.30;;;;;;4978211;28;20051;-85
2021/05/09 01:08:02;;;;;;;4.35;2.58;;;14.40;73.00;;;;;;4978353;28;20504;-85
2021/05/09 01:10:28;;;;;;;6.53;2.92;;;14.50;73.40;;;;;;4978890;28;20118;-83
2021/05/09 01:12:54;;;;;;;6.07;3.17;;;14.40;73.80;;;;;;4981553;28;20062;-83
2021/05/09 01:15:22;;;;;;;9.18;3.55;;;14.40;72.80;;;;;;4993359;28;20030;-82
2021/05/09 01:17:47;;;;;;;6.22;2.00;;;14.40;74.00;;;;;;4997359;28;20036;-83
2021/05/09 01:20:13;;;;;;;7.45;2.78;;;14.40;72.20;;;;;;4997754;28;20065;-84
2021/05/09 01:22:40;;;;;;;6.85;3.58;;;14.30;74.20;;;;;;4997730;28;20042;-81
2021/05/09 01:25:09;;;;;;;4.97;2.45;;;14.30;74.20;;;;;;4986268;28;20066;-79
2021/05/09 01:27:35;;;;;;;8.38;2.85;;;14.30;73.60;;;;;;4978789;28;20026;-83
2021/05/09 01:30:02;;;;;;;6.28;3.15;;;14.20;72.10;;;;;;4981714;28;20488;-82
2021/05/09 01:32:28;;;;;;;7.22;3.03;;;14.30;73.50;;;;;;4982130;28;20039;-82
2021/05/09 01:34:53;;;;;;;10.50;3.00;;;14.30;74.50;;;;;;4977825;28;20027;-82
2021/05/09 01:37:19;;;;;;;8.27;3.85;;;14.20;73.60;;;;;;4976889;28;20027;-82
2021/05/09 01:39:45;;;;;;;7.55;3.45;;;14.20;74.70;;;;;;4977532;28;20023;-83
2021/05/09 01:42:10;;;;;;;5.35;2.33;;;14.20;72.80;;;;;;4977570;28;20093;-82
2021/05/09 01:44:36;;;;;;;6.70;3.05;;;14.10;73.50;;;;;;4977628;28;20428;-82
2021/05/09 01:47:02;;;;;;;7.10;3.13;;;14.10;72.90;;;;;;4977459;28;20031;-81
2021/05/09 01:49:27;;;;;;;8.68;4.20;;;14.00;72.60;;;;;;4976455;28;20027;-82
2021/05/09 01:51:55;;;;;;;6.75;3.25;;;14.00;74.90;;;;;;4977527;28;20035;-84
2021/05/09 01:54:20;;;;;;;7.20;2.90;;;14.00;74.60;;;;;;4977678;28;20081;-85
2021/05/09 01:56:46;;;;;;;9.95;4.53;;;14.00;73.30;;;;;;4978090;28;20428;-85
2021/05/09 01:59:12;;;;;;;6.55;4.13;;;13.90;75.50;;;;;;4977786;28;20066;-84
2021/05/09 02:01:37;;;;;;;8.18;3.05;;;13.90;75.40;;;;;;4976604;28;20372;-83
2021/05/09 02:04:04;;;;;;;5.28;2.50;;;13.90;76.50;;;;;;4978527;28;20105;-83
2021/05/09 02:06:29;;;;;;;10.18;4.47;;;13.80;74.20;;;;;;4978609;28;20030;-83
2021/05/09 02:08:55;;;;;;;9.32;4.25;;;13.80;75.50;;;;;;4982259;28;20042;-83
2021/05/09 02:11:21;;;;;;;7.30;3.38;;;13.70;77.70;;;;;;4976578;28;20128;-83
2021/05/09 02:13:47;;;;;;;11.63;4.80;;;13.70;75.00;;;;;;4977062;28;20099;-84
2021/05/09 02:16:12;;;;;;;5.55;2.63;;;13.70;77.80;;;;;;4976426;28;20023;-83
2021/05/09 02:18:39;;;;;;;10.50;4.75;;;13.60;76.10;;;;;;4975877;28;20023;-83
2021/05/09 02:21:05;;;;;;;5.55;2.85;;;13.50;76.00;;;;;;4977003;28;20585;-84
2021/05/09 02:23:30;;;;;;;5.63;3.42;;;13.50;77.00;;;;;;4977302;28;20066;-82
2021/05/09 02:25:56;;;;;;;6.97;4.38;;;13.50;77.20;;;;;;4977985;28;20023;-84
2021/05/09 02:28:22;;;;;;;8.05;4.05;;;13.50;77.80;;;;;;4977531;28;20505;-82
2021/05/09 02:30:47;;;;;;;5.50;3.20;;;13.40;77.50;;;;;;4978066;28;20504;-84
2021/05/09 02:33:13;;;;;;;7.18;3.30;;;13.40;78.30;;;;;;4979702;28;20068;-83
2021/05/09 02:35:39;;;;;;;8.57;3.72;;;13.30;79.00;;;;;;4976985;28;20026;-82
2021/05/09 02:38:05;;;;;;;11.32;4.53;;;13.30;78.70;;;;;;4976386;28;20070;-82
2021/05/09 02:40:31;;;;;;;11.95;3.58;;;13.20;79.30;;;;;;4976520;28;20105;-86
2021/05/09 02:42:56;;;;;;;7.72;4.10;;;13.20;78.60;;;;;;4982821;28;20496;-84
2021/05/09 02:45:22;;;;;;;10.60;4.63;;;13.20;78.70;;;;;;4993547;28;20025;-87
2021/05/09 02:47:48;;;;;;;8.95;4.68;;;13.10;79.70;;;;;;4998317;28;20043;-85
2021/05/09 02:50:14;;;;;;;7.40;3.67;;;13.10;79.80;;;;;;4997060;28;20019;-84
2021/05/09 02:52:40;;;;;;;7.55;4.50;;;13.10;79.70;;;;;;4982894;28;20031;-85
2021/05/09 02:55:07;;;;;;;7.18;3.53;;;13.10;80.20;;;;;;4977570;28;20074;-82
2021/05/09 02:57:33;;;;;;;7.80;4.00;;;13.10;81.20;;;;;;4981570;28;20037;-81
2021/05/09 02:59:59;;;;;;;8.40;4.10;;;13.10;80.50;;;;;;4991416;28;20465;-82
2021/05/09 03:02:25;;;;;;;10.20;5.05;;;13.10;80.70;;;;;;4977300;28;20459;-83
2021/05/09 03:04:50;;;;;;;7.65;4.82;;;13.00;82.20;;;;;;4975742;28;20022;-81
2021/05/09 03:07:16;;;;;;;8.27;3.80;;;13.00;82.00;;;;;;4976801;28;20499;-82
2021/05/09 03:09:42;;;;;;;8.77;4.40;;;12.90;82.30;;;;;;4977188;28;20038;-82
2021/05/09 03:12:08;;;;;;;7.97;4.55;;;12.90;82.00;;;;;;4977407;28;20023;-83
2021/05/09 03:14:34;;;;;;;10.43;4.68;;;12.90;82.10;;;;;;4995421;28;20017;-83
2021/05/09 03:16:59;;;;;;;13.20;5.00;;;12.80;81.90;;;;;;4994353;28;20027;-84
2021/05/09 03:19:25;;;;;;;8.00;4.43;;;12.70;82.40;;;;;;4998030;28;20041;-84
2021/05/09 03:21:50;;;;;;;11.43;4.70;;;12.70;82.30;;;;;;4995081;28;20014;-83
2021/05/09 03:24:16;;;;;;;9.68;5.00;;;12.60;82.70;;;;;;4976134;28;20023;-83
2021/05/09 03:26:42;;;;;;;8.43;3.80;;;12.60;83.40;;;;;;4976317;28;20019;-86
2021/05/09 03:29:07;;;;;;;10.85;4.63;;;12.60;83.60;;;;;;4975872;28;20031;-85
2021/05/09 03:31:34;;;;;;;7.93;4.28;;;12.50;82.90;;;;;;4977782;28;20027;-83
2021/05/09 03:34:00;;;;;;;7.57;4.53;;;12.50;83.40;;;;;;4979332;28;20030;-83
2021/05/09 03:36:26;;;;;;;7.93;3.72;;;12.50;83.30;;;;;;4975778;28;20026;-83
2021/05/09 03:38:51;;;;;;;13.10;5.45;;;12.40;82.90;;;;;;4975546;28;20030;-84
2021/05/09 03:41:17;;;;;;;9.05;4.90;;;12.40;84.70;;;;;;4975782;28;20023;-83
2021/05/09 03:43:43;;;;;;;9.32;5.00;;;12.40;85.10;;;;;;4975820;28;20493;-84
2021/05/09 03:46:09;;;;;;;10.50;4.60;;;12.40;84.20;;;;;;4975927;28;20027;-84
2021/05/09 03:48:35;;;;;;;9.10;4.22;;;12.40;84.90;;;;;;4975734;28;20031;-83
2021/05/09 03:51:01;;;;;;;5.70;3.30;;;12.40;85.30;;;;;;4975661;28;20031;-82
2021/05/09 03:53:29;;;;;;;6.82;3.55;;;12.30;84.70;;;;;;4975605;28;20022;-83
2021/05/09 03:55:54;;;;;;;10.07;4.45;;;12.30;84.50;;;;;;4975758;28;20446;-83
2021/05/09 03:58:20;;;;;;;10.30;5.22;;;12.30;83.60;;;;;;4980005;28;20066;-83
2021/05/09 04:00:46;;;;;;;9.07;4.72;;;12.30;84.10;;;;;;4978033;28;20057;-81
2021/05/09 04:03:26;;;;;;;6.35;4.05;;;12.30;84.70;;;;;;4976842;28;20465;-82
2021/05/09 04:05:53;;;;;;;9.47;4.93;;;12.20;84.60;;;;;;4976200;28;20266;-81
2021/05/09 04:08:26;;;;;;;9.57;5.00;;;12.10;84.90;;;;;;4976256;28;20027;-82
2021/05/09 04:10:53;;;;;;;7.40;4.85;;;12.10;85.20;;;;;;4975824;28;20058;-81
2021/05/09 04:13:19;;;;;;;8.50;4.32;;;12.10;85.60;;;;;;4976075;28;20026;-82
2021/05/09 04:15:45;;;;;;;9.10;5.55;;;12.10;85.70;;;;;;4975557;28;20029;-82
2021/05/09 04:18:10;;;;;;;8.40;4.38;;;12.00;86.30;;;;;;4975098;28;20113;-83
2021/05/09 04:20:37;;;;;;;9.68;5.78;;;12.00;86.20;;;;;;4974467;28;20050;-82
2021/05/09 04:23:17;;;;;;;7.97;4.03;;;12.00;86.40;;;;;;4975091;28;20081;-82
2021/05/09 04:25:47;;;;;;;;;;;12.00;86.80;;;;;;4981001;28;20015;-83
2021/05/09 04:28:12;;;;;;;9.67;5.73;;;12.00;86.10;;;;;;4979552;28;19914;-83
2021/05/09 04:30:38;;;;;;;9.07;5.28;;;12.00;86.10;;;;;;4980190;28;20433;-83
2021/05/09 04:33:06;;;;;;;14.82;5.72;;;12.00;86.00;;;;;;4982416;28;20032;-83
2021/05/09 04:35:33;;;;;;;7.32;4.10;;;12.00;86.20;;;;;;4987600;28;20054;-84
2021/05/09 04:38:00;;;;;;;9.07;5.03;;;12.00;86.00;;;;;;4982413;28;20031;-85
2021/05/09 04:40:27;;;;;;;10.75;5.95;;;12.10;86.50;;;;;;4995719;28;20082;-83
2021/05/09 04:42:53;;;;;;;7.05;4.55;;;12.10;86.30;;;;;;5000601;28;20030;-81
2021/05/09 04:45:19;;;;;;;8.13;4.75;;;12.10;86.50;;;;;;4991060;28;20031;-83
2021/05/09 04:47:45;;;;;;;7.28;4.65;;;12.20;85.30;;;;;;4979204;28;20559;-82
2021/05/09 04:50:12;;;;;;;10.02;5.82;;;12.20;85.20;;;;;;4980050;28;20031;-83
2021/05/09 04:52:38;;;;;;;10.25;4.40;;;12.30;85.40;;;;;;4980303;28;20042;-84
2021/05/09 04:55:05;;;;;;;8.27;4.72;;;12.30;84.90;;;;;;4981267;28;20027;-85
2021/05/09 04:57:35;;;;;;;12.45;5.93;;;12.40;85.00;;;;;;4981274;28;20026;-84
2021/05/09 05:00:04;;;;;;;10.98;6.03;;;12.40;85.10;;;;;;4981528;28;20130;-81
2021/05/09 05:02:30;;;;;;;10.68;4.85;;;12.50;85.80;;;;;;4980955;28;20018;-83
2021/05/09 05:04:56;;;;;;;8.07;5.28;;;12.60;85.20;;;;;;4987192;28;20023;-81
2021/05/09 05:07:21;;;;;;;9.48;4.45;;;12.60;85.00;;;;;;4983344;28;20030;-81
2021/05/09 05:09:47;;;;;;;8.57;4.40;;;12.70;83.70;;;;;;4983889;28;20388;-83
2021/05/09 05:12:13;;;;;;;6.70;3.50;;;12.70;82.90;;;;;;4992877;28;20019;-83
2021/05/09 05:14:39;;;;;;;6.30;2.85;;;12.90;81.60;;;;;;4999534;28;20074;-83
2021/05/09 05:17:06;;;;;;;5.55;3.38;;;13.00;80.70;;;;;;5000502;28;20031;-85
2021/05/09 05:19:32;;;;;;;10.25;5.03;;;13.10;80.60;;;;;;4997715;28;20276;-84
2021/05/09 05:21:57;;;;;;;8.50;4.15;;;13.20;81.30;;;;;;4987803;28;20099;-85
2021/05/09 05:24:23;;;;;;;12.13;5.63;;;13.30;80.20;;;;;;4983304;28;20066;-83
2021/05/09 05:26:49;;;;;;;7.20;3.72;;;13.40;81.60;;;;;;4985654;28;20082;-83
2021/05/09 05:29:15;;;;;;;8.32;4.75;;;13.50;78.70;;;;;;4985932;28;20033;-82
2021/05/09 05:31:41;;;;;;;7.07;3.80;;;13.50;81.00;;;;;;4988518;28;20042;-84
2021/05/09 05:34:07;;;;;;;8.70;4.25;;;13.50;78.50;;;;;;4997090;28;20053;-83
2021/05/09 05:36:33;;;;;;;10.27;4.78;;;13.60;79.90;;;;;;4995322;28;20019;-83
2021/05/09 05:38:59;;;;;;;7.15;3.75;;;13.70;80.90;;;;;;4994116;28;20029;-83
2021/05/09 05:41:25;;;;;;;6.03;3.20;;;13.60;75.70;;;;;;4992464;28;20030;-82
2021/05/09 05:43:50;;;;;;;7.32;3.20;;;13.70;77.70;;;;;;4980221;28;20094;-85
2021/05/09 05:46:16;;;;;;;9.60;4.28;;;13.80;78.80;;;;;;4980783;28;20469;-86
2021/05/09 05:48:42;;;;;;;8.52;4.45;;;13.90;77.50;;;;;;4981196;28;20118;-83
2021/05/09 05:51:07;;;;;;;7.25;3.97;;;13.90;79.10;;;;;;4982286;28;20124;-84
2021/05/09 05:53:33;;;;;;;6.97;3.70;;;13.90;79.10;;;;;;4978421;28;20014;-83
2021/05/09 05:55:59;;;;;;;6.03;3.35;;;13.90;78.50;;;;;;4978656;28;20118;-82
2021/05/09 05:58:24;;;;;;;7.18;3.15;;;13.90;78.20;;;;;;4977825;28;20027;-82
2021/05/09 06:00:50;;;;;;;10.32;4.18;;;13.90;77.30;;;;;;4978541;28;20079;-82
2021/05/09 06:03:16;;;;;;;6.82;4.55;;;13.90;76.40;;;;;;4978270;28;20081;-80
2021/05/09 06:05:45;;;;;;;7.18;4.20;;;14.00;76.80;;;;;;4977066;28;20019;-80
2021/05/09 06:08:11;;;;;;;7.35;4.63;;;14.10;77.40;;;;;;4977973;28;20033;-81
2021/05/09 06:10:38;;;;;;;12.18;4.80;;;14.20;78.40;;;;;;4978311;28;20027;-80
2021/05/09 06:13:03;;;;;;;6.13;3.28;;;14.30;75.90;;;;;;4978643;28;20110;-84
2021/05/09 06:15:29;;;;;;;7.88;4.40;;;14.50;75.90;;;;;;4981565;28;20117;-84
2021/05/09 06:17:55;;;;;;;6.35;3.17;;;14.60;75.80;;;;;;4978299;28;20034;-84
2021/05/09 06:20:21;;;;;;;8.38;3.17;;;14.70;75.20;;;;;;4978172;28;20488;-83
2021/05/09 06:22:47;;;;;;;7.95;3.60;;;14.90;75.30;;;;;;4977797;28;20023;-83
2021/05/09 06:25:13;;;;;;;7.05;4.00;;;14.90;76.80;;;;;;4978094;28;20433;-84
2021/05/09 06:27:40;;;;;;;8.82;3.90;;;15.00;75.90;;;;;;4982012;28;20058;-83
2021/05/09 06:30:07;;;;;;;6.70;3.78;;;15.10;75.60;;;;;;4977843;28;20046;-82
2021/05/09 06:32:33;;;;;;;7.13;2.40;;;15.20;74.60;;;;;;4981256;28;20027;-83
2021/05/09 06:34:58;;;;;;;7.18;3.72;;;15.30;72.40;;;;;;4996265;28;20038;-82
2021/05/09 06:37:24;;;;;;;6.95;3.00;;;15.40;73.10;;;;;;4997977;28;20058;-83
2021/05/09 06:39:51;;;;;;;5.43;3.38;;;15.60;72.10;;;;;;4991884;28;20484;-82
2021/05/09 06:42:17;;;;;;;8.75;3.22;;;15.80;73.40;;;;;;4980141;28;20043;-83
2021/05/09 06:44:47;;;;;;;8.23;3.28;;;15.90;72.20;;;;;;4978090;28;20034;-83
2021/05/09 06:47:13;;;;;;;8.05;3.38;;;16.00;72.00;;;;;;4977708;28;20125;-83
2021/05/09 06:49:38;;;;;;;7.13;3.08;;;16.10;69.80;;;;;;4978079;28;20136;-85
2021/05/09 06:52:05;;;;;;;8.00;3.13;;;16.30;68.60;;;;;;4978367;28;20113;-84
2021/05/09 06:54:31;;;;;;;5.40;2.08;;;16.40;68.90;;;;;;4979885;28;20023;-82
2021/05/09 06:56:58;;;;;;;9.70;2.90;;;16.50;65.80;;;;;;4977681;28;20030;-83
2021/05/09 06:59:24;;;;;;;6.80;3.05;;;16.60;66.70;;;;;;4978961;28;20082;-81
2021/05/09 07:01:49;;;;;;;5.68;2.38;;;16.70;68.10;;;;;;4980362;28;20027;-82
2021/05/09 07:04:15;;;;;;;5.03;2.15;;;16.70;67.30;;;;;;4982148;28;20027;-82
2021/05/09 07:06:41;;;;;;;5.72;2.80;;;16.80;65.80;;;;;;4979469;28;20111;-83
2021/05/09 07:09:09;;;;;;;8.50;4.00;;;16.90;66.70;;;;;;4981372;28;20054;-85
2021/05/09 07:11:35;;;;;;;8.35;2.97;;;17.00;68.60;;;;;;4990991;28;20047;-80
2021/05/09 07:14:01;;;;;;;7.72;3.63;;;17.00;66.50;;;;;;4996749;28;20030;-81
2021/05/09 07:16:27;;;;;;;5.72;2.38;;;17.10;65.00;;;;;;4997691;28;20085;-81
2021/05/09 07:18:53;;;;;;;8.20;3.25;;;17.20;65.20;;;;;;4996052;28;20102;-81
2021/05/09 07:22:27;;;;;;;5.78;2.50;;;17.40;66.80;;;;;;4990181;28;20018;-82
2021/05/09 07:24:44;;;;;;;7.82;3.70;;;17.40;64.80;;;;;;4991538;28;20046;-83
2021/05/09 07:27:10;;;;;;;6.22;3.60;;;17.60;64.50;;;;;;4976620;28;20035;-80
2021/05/09 07:29:35;;;;;;;6.00;3.47;;;17.70;65.40;;;;;;4975138;28;20161;-82
2021/05/09 07:32:01;;;;;;;4.47;2.30;;;17.80;65.20;;;;;;4976308;28;20031;-81
2021/05/09 07:34:26;;;;;;;5.93;3.50;;;18.00;62.80;;;;;;4976919;28;20030;-82
2021/05/09 07:36:52;;;;;;;8.63;3.85;;;18.00;63.00;;;;;;4976646;28;20030;-82
2021/05/09 07:39:18;;;;;;;6.10;3.78;;;18.00;63.10;;;;;;4976662;28;20054;-81
2021/05/09 07:41:43;;;;;;;7.68;3.80;;;18.00;63.50;;;;;;4977047;28;20023;-81
2021/05/09 07:44:09;;;;;;;7.88;2.42;;;18.10;64.50;;;;;;4976286;28;20104;-81
2021/05/09 07:46:35;;;;;;;6.68;3.42;;;18.20;62.70;;;;;;4975285;28;20026;-80
2021/05/09 07:49:00;;;;;;;6.35;2.67;;;18.20;63.00;;;;;;4976037;28;20043;-82
2021/05/09 07:51:26;;;;;;;9.82;3.55;;;18.20;62.90;;;;;;4976309;28;20118;-81
2021/05/09 07:53:51;;;;;;;6.40;3.78;;;18.30;63.10;;;;;;4976053;28;20023;-81
2021/05/09 07:56:18;;;;;;;7.88;3.25;;;18.50;63.50;;;;;;4976432;28;20025;-81
2021/05/09 07:58:44;;;;;;;7.03;3.83;;;18.70;63.40;;;;;;4976829;28;20031;-81
2021/05/09 08:01:10;;;;;;;5.82;2.92;;;19.10;61.80;;;;;;4980692;28;20042;-81
2021/05/09 08:03:36;;;;;;;5.78;3.17;;;19.20;60.60;;;;;;4979835;28;20465;-81
2021/05/09 08:06:01;;;;;;;9.38;2.83;;;19.30;60.00;;;;;;4978863;28;20027;-81
2021/05/09 08:08:28;;;;;;;7.28;3.85;;;19.30;59.30;;;;;;4979269;28;20023;-81
2021/05/09 08:10:53;;;;;;;6.18;2.88;;;19.40;60.00;;;;;;4979957;28;20027;-81
2021/05/09 08:13:19;;;;;;;5.75;2.83;;;19.40;60.00;;;;;;4977014;28;20392;-83
2021/05/09 08:15:45;;;;;;;5.00;2.80;;;19.40;60.30;;;;;;4979585;28;20109;-84
2021/05/09 08:18:11;;;;;;;5.22;2.90;;;19.50;59.80;;;;;;4982571;28;20030;-82
2021/05/09 08:20:39;;;;;;;5.65;3.25;;;19.80;59.50;;;;;;4976748;28;20366;-82
2021/05/09 08:23:05;;;;;;;6.53;3.72;;;19.80;59.30;;;;;;4977097;28;20122;-80
2021/05/09 08:25:31;;;;;;;6.25;2.70;;;19.80;60.90;;;;;;4977460;28;20106;-82
2021/05/09 08:27:57;;;;;;;6.15;3.38;;;19.60;61.20;;;;;;4978128;28;20037;-80
2021/05/09 08:30:25;;;;;;;6.63;2.95;;;19.30;62.70;;;;;;4989491;28;20062;-81
2021/05/09 08:32:51;;;;;;;5.90;3.08;;;19.20;62.30;;;;;;4997046;28;20039;-80
2021/05/09 08:35:20;;;;;;;6.95;2.85;;;19.30;61.60;;;;;;4985112;28;20085;-82
2021/05/09 08:37:46;;;;;;;6.15;2.90;;;19.50;61.30;;;;;;4979151;28;20042;-81
2021/05/09 08:40:14;;;;;;;5.43;2.50;;;19.50;60.30;;;;;;4977214;28;20023;-81
2021/05/09 08:42:44;;;;;;;5.95;3.05;;;19.50;60.70;;;;;;4978346;28;20073;-82
2021/05/09 08:45:10;;;;;;;7.10;2.45;;;19.80;60.70;;;;;;4977469;28;20114;-81
2021/05/09 08:47:43;;;;;;;9.30;3.03;;;19.90;59.90;;;;;;4976357;28;20030;-80
2021/05/09 08:50:14;;;;;;;5.72;2.65;;;20.10;59.60;;;;;;4977610;28;20392;-82
2021/05/09 08:52:41;;;;;;;6.07;2.30;;;20.10;58.90;;;;;;4976726;28;20114;-82
2021/05/09 08:55:12;;;;;;;4.78;2.70;;;20.30;59.30;;;;;;4977860;28;20022;-81
2021/05/09 08:57:41;;;;;;;7.53;2.80;;;20.60;59.50;;;;;;4977475;28;20472;-82
2021/05/09 09:00:09;;;;;;;3.95;2.20;;;21.10;58.30;;;;;;4977462;28;20054;-82
2021/05/09 09:02:35;;;;;;;5.18;2.60;;;21.30;57.10;;;;;;4978361;28;20185;-80
2021/05/09 09:05:01;;;;;;;5.43;2.90;;;21.30;56.90;;;;;;4978351;28;20058;-81
2021/05/09 09:07:46;;;;;;;5.68;2.95;;;21.30;56.80;;;;;;4977601;28;20026;-79
2021/05/09 09:10:29;;;;;;;5.40;3.05;;;21.50;56.50;;;;;;4986503;28;20051;-82
2021/05/09 09:12:55;;;;;;;5.53;2.50;;;21.60;56.50;;;;;;4997907;28;20054;-81
2021/05/09 09:15:21;;;;;;;6.53;2.75;;;21.80;56.50;;;;;;4997714;28;20011;-82
2021/05/09 09:17:47;;;;;;;5.93;3.45;;;22.10;56.30;;;;;;4999620;28;20042;-82
2021/05/09 09:20:16;;;;;;;7.15;3.55;;;22.20;55.70;;;;;;4998492;28;20042;-82
2021/05/09 09:22:55;;;;;;;8.60;4.50;;;22.00;56.20;;;;;;4983110;28;20042;-84
2021/05/09 09:25:24;;;;;;;7.70;2.85;;;21.90;56.60;;;;;;4983251;28;20023;-84
2021/05/09 09:27:51;;;;;;;8.32;4.38;;;22.00;56.70;;;;;;4980460;28;20033;-82
2021/05/09 09:30:18;;;;;;;6.85;3.92;;;22.20;56.40;;;;;;4985097;28;20481;-82
2021/05/09 09:33:07;;;;;;;7.13;3.42;;;22.50;56.20;;;;;;4984746;28;20011;-81
2021/05/09 09:35:32;;;;;;;7.40;3.33;;;22.60;55.60;;;;;;4979083;28;20030;-80
2021/05/09 09:37:58;;;;;;;6.82;3.53;;;22.80;55.10;;;;;;4979892;28;20035;-82
2021/05/09 09:40:23;;;;;;;4.93;2.80;;;23.00;55.10;;;;;;4979180;28;20029;-83
2021/05/09 09:42:49;;;;;;;5.68;2.83;;;23.10;54.80;;;;;;4977429;28;20027;-81
2021/05/09 09:45:53;;;;;;;5.22;2.88;;;23.30;54.60;;;;;;4978645;28;20022;-81
2021/05/09 09:48:19;;;;;;;10.27;3.83;;;23.10;54.90;;;;;;4978944;28;20058;-82
2021/05/09 09:50:47;;;;;;;7.85;3.47;;;23.00;55.10;;;;;;4977721;28;20381;-83
2021/05/09 09:53:37;;;;;;;6.07;3.25;;;23.00;55.30;;;;;;4978281;28;20027;-82
2021/05/09 09:56:04;;;;;;;5.05;2.85;;;23.10;55.50;;;;;;4979204;28;20065;-82
2021/05/09 09:58:53;;;;;;;5.85;3.17;;;23.10;55.60;;;;;;4979948;28;20027;-83
2021/05/09 10:01:33;;;;;;;8.13;3.42;;;23.10;55.70;;;;;;4977893;28;20204;-82
2021/05/09 10:04:00;;;;;;;6.72;3.63;;;23.10;55.90;;;;;;4977343;28;20109;-81
2021/05/09 10:06:26;;;;;;;6.93;3.75;;;23.10;55.70;;;;;;4979838;28;20240;-81
2021/05/09 10:08:53;;;;;;;5.85;2.85;;;23.20;55.70;;;;;;4983400;28;20105;-82
2021/05/09 10:11:20;;;;;;;5.95;2.80;;;23.30;55.50;;;;;;4979464;28;20110;-82
2021/05/09 10:13:47;;;;;;;8.48;3.58;;;23.50;54.60;;;;;;4978774;28;20122;-82
2021/05/09 10:16:13;;;;;;;5.82;2.88;;;23.60;55.00;;;;;;4978326;28;20027;-84
2021/05/09 10:18:44;;;;;;;6.05;3.65;;;23.70;54.80;;;;;;4978826;28;20035;-84
2021/05/09 10:21:10;;;;;;;4.97;2.67;;;23.80;54.30;;;;;;4981619;28;20038;-84
2021/05/09 10:23:56;;;;;;;6.97;3.65;;;24.00;54.10;;;;;;4998524;28;20037;-84
2021/05/09 10:26:30;;;;;;;5.00;3.03;;;24.10;54.40;;;;;;4996893;28;20034;-83
2021/05/09 10:28:55;;;;;;;6.45;3.25;;;24.60;53.80;;;;;;4980506;28;20031;-83
2021/05/09 10:31:28;;;;;;;5.25;2.95;;;24.90;53.10;;;;;;4978836;28;20130;-85
2021/05/09 10:33:54;;;;;;;6.15;3.50;;;25.20;52.50;;;;;;4978530;28;20049;-84
2021/05/09 10:36:20;;;;;;;6.22;2.60;;;25.30;52.30;;;;;;4979037;28;20023;-84
2021/05/09 10:39:25;;;;;;;6.00;3.45;;;25.30;52.40;;;;;;4978236;28;20061;-83
2021/05/09 10:41:53;;;;;;;5.63;2.75;;;25.60;51.70;;;;;;4995382;28;20058;-84
2021/05/09 10:44:40;;;;;;;4.32;2.40;;;25.70;52.10;;;;;;4981341;28;20030;-85
2021/05/09 10:47:07;;;;;;;4.88;2.72;;;25.70;52.40;;;;;;4984112;28;20085;-84
2021/05/09 10:49:33;;;;;;;6.60;3.70;;;25.40;52.40;;;;;;4978175;28;20389;-86
2021/05/09 10:52:40;;;;;;;6.40;2.53;;;25.30;52.90;;;;;;4976964;28;20023;-84
2021/05/09 10:55:25;;;;;;;6.10;2.95;;;25.10;53.90;;;;;;4977865;28;20077;-84
2021/05/09 10:57:53;;;;;;;6.22;2.97;;;24.80;54.40;;;;;;4980471;28;20118;-85
2021/05/09 11:00:19;;;;;;;7.82;2.70;;;24.60;54.10;;;;;;4987219;28;20058;-85
2021/05/09 11:02:44;;;;;;;6.15;3.95;;;24.40;54.60;;;;;;4979158;28;20019;-85
2021/05/09 11:05:10;;;;;;;7.45;3.45;;;24.20;56.00;;;;;;4979833;28;20101;-85
2021/05/09 11:07:44;;;;;;;7.80;3.30;;;24.10;55.90;;;;;;4982813;28;20037;-85
2021/05/09 11:10:28;;;;;;;6.28;3.38;;;23.90;56.70;;;;;;4992258;28;20025;-85
2021/05/09 11:13:02;;;;;;;7.10;2.95;;;23.60;56.20;;;;;;4997901;28;20027;-85
2021/05/09 11:15:27;;;;;;;4.78;2.38;;;23.50;56.80;;;;;;4998274;28;20237;-84
2021/05/09 11:17:53;;;;;;;6.35;3.42;;;23.30;57.30;;;;;;4995710;28;20042;-85
2021/05/09 11:20:19;;;;;;;5.07;3.13;;;23.10;58.50;;;;;;4988833;28;20026;-84
2021/05/09 11:22:45;;;;;;;6.97;2.92;;;23.10;58.50;;;;;;4997688;28;20087;-85
2021/05/09 11:25:11;;;;;;;5.82;3.45;;;23.10;58.70;;;;;;4993281;28;20377;-85
2021/05/09 11:27:45;;;;;;;6.15;2.80;;;23.10;58.60;;;;;;4983516;28;20042;-86
2021/05/09 11:30:11;;;;;;;7.15;3.08;;;23.00;57.80;;;;;;4975770;28;20031;-85
2021/05/09 11:32:37;;;;;;;7.07;3.22;;;23.00;57.80;;;;;;4975626;28;20117;-83
2021/05/09 11:35:16;;;;;;;5.82;2.97;;;23.10;58.00;;;;;;5133223;27;20280;-83
2021/05/09 11:37:42;;;;;;;4.78;2.38;;;23.20;58.00;;;;;;5112584;28;20031;-85
2021/05/09 11:40:10;;;;;;;5.65;3.42;;;23.30;57.60;;;;;;5111791;28;20081;-85
2021/05/09 11:42:36;;;;;;;6.63;3.25;;;23.40;57.50;;;;;;5111394;28;20020;-84
2021/05/09 11:45:03;;;;;;;8.05;4.38;;;23.30;57.20;;;;;;5112469;28;20024;-85
2021/05/09 11:47:39;;;;;;;5.40;2.85;;;23.30;57.70;;;;;;5113505;28;20364;-85
2021/05/09 11:50:09;;;;;;;8.50;2.40;;;23.20;57.30;;;;;;5112091;28;20020;-84
2021/05/09 11:52:40;;;;;;;;;;;23.10;57.70;;;;;;5122029;28;20008;-85
2021/05/09 11:55:08;;;;;;;6.68;2.80;;;23.00;58.10;;;;;;5120163;28;19926;-85
2021/05/09 11:57:34;;;;;;;5.18;2.55;;;23.00;58.00;;;;;;5125972;28;20019;-85
2021/05/09 12:00:07;;;;;;;5.72;2.78;;;22.90;58.60;;;;;;5123709;28;20038;-85
2021/05/09 12:02:38;;;;;;;6.53;3.20;;;22.80;58.90;;;;;;5130381;28;20054;-85
2021/05/09 12:05:09;;;;;;;6.10;2.63;;;22.80;59.00;;;;;;5130797;28;20145;-85
2021/05/09 12:07:42;;;;;;;5.18;2.67;;;22.70;59.00;;;;;;5110429;28;20396;-85
2021/05/09 12:10:25;;;;;;;4.57;2.85;;;22.70;59.10;;;;;;5105399;28;20024;-85
2021/05/09 12:13:11;;;;;;;4.78;2.97;;;22.60;59.20;;;;;;5099831;28;20020;-85
2021/05/09 12:15:43;;;;;;;6.97;2.28;;;22.60;59.40;;;;;;5114094;28;20048;-84
2021/05/09 12:18:10;;;;;;;5.88;2.42;;;22.60;59.60;;;;;;5113569;28;20031;-84
2021/05/09 12:20:46;;;;;;;5.85;3.22;;;22.60;59.50;;;;;;5096305;28;20025;-84
2021/05/09 12:23:18;;;;;;;5.43;2.50;;;22.60;59.30;;;;;;5093398;28;20383;-85
2021/05/09 12:25:49;;;;;;;5.55;2.65;;;22.60;59.60;;;;;;5092356;28;20448;-85
2021/05/09 12:28:20;;;;;;;6.15;2.45;;;22.60;59.60;;;;;;5092803;28;20107;-85
2021/05/09 12:30:48;;;;;;;8.30;3.10;;;22.60;59.70;;;;;;5092632;28;20134;-84
2021/05/09 12:33:24;;;;;;;4.15;2.40;;;22.70;60.00;;;;;;5092153;28;20060;-85
2021/05/09 12:35:50;;;;;;;12.35;3.28;;;22.70;58.80;;;;;;5097824;28;20028;-85
2021/05/09 12:38:27;;;;;;;4.50;2.40;;;22.80;58.70;;;;;;5092343;28;20016;-84
2021/05/09 12:41:10;;;;;;;4.97;2.60;;;22.80;58.80;;;;;;5092873;28;20058;-85
2021/05/09 12:43:46;;;;;;;5.70;2.60;;;22.90;58.40;;;;;;5091039;28;20502;-86
2021/05/09 12:46:42;;;;;;;5.63;2.42;;;22.90;58.30;;;;;;5080690;28;20035;-86
2021/05/09 12:49:23;;;;;;;6.60;2.78;;;22.90;58.30;;;;;;5078913;28;20048;-84
2021/05/09 12:51:58;;;;;;;5.53;2.50;;;22.90;57.70;;;;;;5074063;28;20488;-90